sensor_id;sensor_type;location;lat;lon;timestamp;P1;durP1;ratioP1;P2;durP2;ratioP2
64351;SDS011;50680;52.626;-8.668;2022-09-21T00:03:41;4.90;;;3.08;;
64351;SDS011;50680;52.626;-8.668;2022-09-21T00:06:10;7.97;;;3.03;;
64351;SDS011;50680;52.626;-8.668;2022-09-21T00:08:39;7.05;;;2.92;;
64351;SDS011;50680;52.626;-8.668;2022-09-21T00:11:06;5.72;;;3.33;;
64351;SDS011;50680;52.626;-8.668;2022-09-21T00:13:34;4.03;;;2.80;;
64351;SDS011;50680;52.626;-8.668;2022-09-21T00:16:06;4.20;;;3.00;;
64351;SDS011;50680;52.626;-8.668;2022-09-21T00:21:12;8.85;;;2.88;;
64351;SDS011;50680;52.626;-8.668;2022-09-21T00:23:40;6.60;;;3.15;;
64351;SDS011;50680;52.626;-8.668;2022-09-21T00:26:12;4.40;;;3.03;;
64351;SDS011;50680;52.626;-8.668;2022-09-21T00:28:41;7.18;;;3.13;;
64351;SDS011;50680;52.626;-8.668;2022-09-21T00:31:11;4.68;;;3.08;;
64351;SDS011;50680;52.626;-8.668;2022-09-21T00:33:40;7.57;;;2.95;;
64351;SDS011;50680;52.626;-8.668;2022-09-21T00:36:15;4.03;;;3.03;;
64351;SDS011;50680;52.626;-8.668;2022-09-21T00:38:44;7.13;;;3.03;;
64351;SDS011;50680;52.626;-8.668;2022-09-21T00:41:14;6.38;;;3.33;;
64351;SDS011;50680;52.626;-8.668;2022-09-21T00:43:44;5.28;;;2.80;;
64351;SDS011;50680;52.626;-8.668;2022-09-21T00:46:14;4.05;;;2.60;;
64351;SDS011;50680;52.626;-8.668;2022-09-21T00:48:54;6.85;;;3.17;;
64351;SDS011;50680;52.626;-8.668;2022-09-21T00:51:23;4.50;;;2.67;;
64351;SDS011;50680;52.626;-8.668;2022-09-21T00:53:51;4.07;;;2.65;;
64351;SDS011;50680;52.626;-8.668;2022-09-21T00:56:23;3.75;;;2.63;;
64351;SDS011;50680;52.626;-8.668;2022-09-21T00:58:51;6.22;;;2.55;;
64351;SDS011;50680;52.626;-8.668;2022-09-21T01:01:20;3.35;;;2.28;;
64351;SDS011;50680;52.626;-8.668;2022-09-21T01:03:48;3.10;;;2.20;;
64351;SDS011;50680;52.626;-8.668;2022-09-21T01:06:19;4.70;;;2.47;;
64351;SDS011;50680;52.626;-8.668;2022-09-21T01:08:48;4.72;;;2.55;;
64351;SDS011;50680;52.626;-8.668;2022-09-21T01:22:08;4.13;;;2.35;;
64351;SDS011;50680;52.626;-8.668;2022-09-21T01:30:16;4.20;;;1.83;;
64351;SDS011;50680;52.626;-8.668;2022-09-21T01:32:47;5.22;;;2.35;;
64351;SDS011;50680;52.626;-8.668;2022-09-21T01:35:30;3.53;;;2.13;;
64351;SDS011;50680;52.626;-8.668;2022-09-21T01:38:02;3.38;;;1.92;;
64351;SDS011;50680;52.626;-8.668;2022-09-21T01:40:34;4.10;;;2.10;;
64351;SDS011;50680;52.626;-8.668;2022-09-21T01:43:06;3.45;;;2.00;;
64351;SDS011;50680;52.626;-8.668;2022-09-21T01:45:41;3.40;;;2.28;;
64351;SDS011;50680;52.626;-8.668;2022-09-21T01:48:13;2.47;;;1.67;;
64351;SDS011;50680;52.626;-8.668;2022-09-21T01:50:44;3.22;;;1.60;;
64351;SDS011;50680;52.626;-8.668;2022-09-21T01:56:06;3.20;;;2.00;;
64351;SDS011;50680;52.626;-8.668;2022-09-21T01:59:09;3.08;;;1.70;;
64351;SDS011;50680;52.626;-8.668;2022-09-21T02:01:49;5.03;;;1.60;;
64351;SDS011;50680;52.626;-8.668;2022-09-21T02:04:21;3.03;;;1.50;;
64351;SDS011;50680;52.626;-8.668;2022-09-21T02:06:49;4.15;;;1.63;;
64351;SDS011;50680;52.626;-8.668;2022-09-21T02:09:17;2.63;;;1.70;;
64351;SDS011;50680;52.626;-8.668;2022-09-21T02:11:44;1.85;;;1.45;;
64351;SDS011;50680;52.626;-8.668;2022-09-21T02:14:15;8.27;;;1.55;;
64351;SDS011;50680;52.626;-8.668;2022-09-21T02:16:47;3.28;;;1.60;;
64351;SDS011;50680;52.626;-8.668;2022-09-21T02:19:33;1.88;;;1.30;;
64351;SDS011;50680;52.626;-8.668;2022-09-21T02:22:14;2.83;;;1.20;;
64351;SDS011;50680;52.626;-8.668;2022-09-21T02:25:08;4.20;;;1.33;;
64351;SDS011;50680;52.626;-8.668;2022-09-21T02:32:44;6.03;;;1.50;;
64351;SDS011;50680;52.626;-8.668;2022-09-21T02:40:34;1.90;;;1.42;;
64351;SDS011;50680;52.626;-8.668;2022-09-21T02:43:09;4.72;;;1.60;;
64351;SDS011;50680;52.626;-8.668;2022-09-21T02:45:44;2.35;;;1.35;;
64351;SDS011;50680;52.626;-8.668;2022-09-21T02:48:21;3.40;;;1.50;;
64351;SDS011;50680;52.626;-8.668;2022-09-21T02:50:56;4.95;;;1.40;;
64351;SDS011;50680;52.626;-8.668;2022-09-21T02:53:29;3.70;;;1.30;;
64351;SDS011;50680;52.626;-8.668;2022-09-21T02:56:02;3.10;;;1.70;;
64351;SDS011;50680;52.626;-8.668;2022-09-21T02:58:38;6.30;;;1.52;;
64351;SDS011;50680;52.626;-8.668;2022-09-21T03:01:09;1.60;;;1.38;;
64351;SDS011;50680;52.626;-8.668;2022-09-21T03:03:37;3.42;;;1.42;;
64351;SDS011;50680;52.626;-8.668;2022-09-21T03:06:04;4.75;;;1.50;;
64351;SDS011;50680;52.626;-8.668;2022-09-21T03:08:32;2.70;;;1.50;;
64351;SDS011;50680;52.626;-8.668;2022-09-21T03:10:58;4.47;;;1.60;;
64351;SDS011;50680;52.626;-8.668;2022-09-21T03:13:26;2.63;;;1.55;;
64351;SDS011;50680;52.626;-8.668;2022-09-21T03:16:00;3.00;;;1.50;;
64351;SDS011;50680;52.626;-8.668;2022-09-21T03:18:28;2.80;;;1.50;;
64351;SDS011;50680;52.626;-8.668;2022-09-21T03:20:56;2.42;;;1.45;;
64351;SDS011;50680;52.626;-8.668;2022-09-21T03:23:23;6.90;;;2.22;;
64351;SDS011;50680;52.626;-8.668;2022-09-21T03:25:51;5.15;;;1.50;;
64351;SDS011;50680;52.626;-8.668;2022-09-21T03:28:18;2.75;;;1.73;;
64351;SDS011;50680;52.626;-8.668;2022-09-21T03:30:46;3.20;;;1.95;;
64351;SDS011;50680;52.626;-8.668;2022-09-21T03:33:14;3.30;;;1.92;;
64351;SDS011;50680;52.626;-8.668;2022-09-21T03:35:42;6.60;;;2.20;;
64351;SDS011;50680;52.626;-8.668;2022-09-21T03:38:09;2.80;;;2.10;;
64351;SDS011;50680;52.626;-8.668;2022-09-21T03:40:36;3.63;;;2.33;;
64351;SDS011;50680;52.626;-8.668;2022-09-21T03:43:03;3.95;;;2.00;;
64351;SDS011;50680;52.626;-8.668;2022-09-21T03:45:29;3.72;;;1.95;;
64351;SDS011;50680;52.626;-8.668;2022-09-21T03:47:57;5.00;;;1.95;;
64351;SDS011;50680;52.626;-8.668;2022-09-21T03:50:27;6.15;;;2.47;;
64351;SDS011;50680;52.626;-8.668;2022-09-21T03:52:55;3.25;;;2.40;;
64351;SDS011;50680;52.626;-8.668;2022-09-21T03:55:22;3.55;;;2.00;;
64351;SDS011;50680;52.626;-8.668;2022-09-21T03:57:49;2.60;;;2.05;;
64351;SDS011;50680;52.626;-8.668;2022-09-21T04:00:16;5.38;;;2.58;;
64351;SDS011;50680;52.626;-8.668;2022-09-21T04:02:43;4.45;;;2.72;;
64351;SDS011;50680;52.626;-8.668;2022-09-21T04:05:12;4.18;;;2.75;;
64351;SDS011;50680;52.626;-8.668;2022-09-21T04:07:42;3.78;;;2.78;;
64351;SDS011;50680;52.626;-8.668;2022-09-21T04:10:12;6.35;;;2.72;;
64351;SDS011;50680;52.626;-8.668;2022-09-21T04:12:42;6.07;;;2.97;;
64351;SDS011;50680;52.626;-8.668;2022-09-21T04:15:10;6.82;;;3.20;;
64351;SDS011;50680;52.626;-8.668;2022-09-21T04:17:39;3.67;;;2.85;;
64351;SDS011;50680;52.626;-8.668;2022-09-21T04:20:07;4.93;;;2.97;;
64351;SDS011;50680;52.626;-8.668;2022-09-21T04:22:34;5.70;;;3.13;;
64351;SDS011;50680;52.626;-8.668;2022-09-21T04:25:09;4.88;;;3.15;;
64351;SDS011;50680;52.626;-8.668;2022-09-21T04:27:38;4.78;;;3.20;;
64351;SDS011;50680;52.626;-8.668;2022-09-21T04:30:06;5.78;;;3.45;;
64351;SDS011;50680;52.626;-8.668;2022-09-21T04:32:35;10.55;;;3.38;;
64351;SDS011;50680;52.626;-8.668;2022-09-21T04:35:02;5.80;;;3.10;;
64351;SDS011;50680;52.626;-8.668;2022-09-21T04:37:29;5.35;;;3.30;;
64351;SDS011;50680;52.626;-8.668;2022-09-21T04:39:56;6.88;;;3.45;;
64351;SDS011;50680;52.626;-8.668;2022-09-21T04:42:23;5.68;;;3.25;;
64351;SDS011;50680;52.626;-8.668;2022-09-21T04:44:51;7.55;;;3.78;;
64351;SDS011;50680;52.626;-8.668;2022-09-21T04:47:18;5.20;;;3.13;;
64351;SDS011;50680;52.626;-8.668;2022-09-21T04:49:48;7.27;;;3.57;;
64351;SDS011;50680;52.626;-8.668;2022-09-21T04:52:15;6.85;;;3.05;;
64351;SDS011;50680;52.626;-8.668;2022-09-21T04:54:44;8.93;;;3.35;;
64351;SDS011;50680;52.626;-8.668;2022-09-21T04:57:12;4.65;;;3.17;;
64351;SDS011;50680;52.626;-8.668;2022-09-21T04:59:40;5.45;;;3.70;;
64351;SDS011;50680;52.626;-8.668;2022-09-21T05:02:07;6.15;;;3.30;;
64351;SDS011;50680;52.626;-8.668;2022-09-21T05:04:34;5.60;;;3.63;;
64351;SDS011;50680;52.626;-8.668;2022-09-21T05:07:01;7.97;;;3.35;;
64351;SDS011;50680;52.626;-8.668;2022-09-21T05:09:28;5.95;;;3.42;;
64351;SDS011;50680;52.626;-8.668;2022-09-21T05:12:13;4.38;;;3.22;;
64351;SDS011;50680;52.626;-8.668;2022-09-21T05:14:40;4.63;;;3.50;;
64351;SDS011;50680;52.626;-8.668;2022-09-21T05:17:10;5.60;;;3.60;;
64351;SDS011;50680;52.626;-8.668;2022-09-21T05:19:38;4.43;;;3.13;;
64351;SDS011;50680;52.626;-8.668;2022-09-21T05:22:05;5.50;;;3.97;;
64351;SDS011;50680;52.626;-8.668;2022-09-21T05:24:32;6.30;;;3.45;;
64351;SDS011;50680;52.626;-8.668;2022-09-21T05:26:59;5.53;;;3.20;;
64351;SDS011;50680;52.626;-8.668;2022-09-21T05:29:27;5.50;;;3.33;;
64351;SDS011;50680;52.626;-8.668;2022-09-21T05:40:18;5.22;;;3.20;;
64351;SDS011;50680;52.626;-8.668;2022-09-21T05:42:45;7.22;;;3.17;;
64351;SDS011;50680;52.626;-8.668;2022-09-21T05:45:13;5.70;;;3.13;;
64351;SDS011;50680;52.626;-8.668;2022-09-21T05:50:47;5.40;;;3.53;;
64351;SDS011;50680;52.626;-8.668;2022-09-21T05:56:11;5.03;;;2.97;;
64351;SDS011;50680;52.626;-8.668;2022-09-21T06:04:26;5.20;;;3.00;;
64351;SDS011;50680;52.626;-8.668;2022-09-21T06:06:53;5.38;;;2.85;;
64351;SDS011;50680;52.626;-8.668;2022-09-21T06:09:20;4.78;;;2.78;;
64351;SDS011;50680;52.626;-8.668;2022-09-21T06:11:47;5.05;;;3.20;;
64351;SDS011;50680;52.626;-8.668;2022-09-21T06:14:14;4.47;;;2.63;;
64351;SDS011;50680;52.626;-8.668;2022-09-21T06:16:41;6.65;;;2.83;;
64351;SDS011;50680;52.626;-8.668;2022-09-21T06:19:12;4.70;;;2.70;;
64351;SDS011;50680;52.626;-8.668;2022-09-21T06:21:39;8.93;;;2.90;;
64351;SDS011;50680;52.626;-8.668;2022-09-21T06:24:06;3.95;;;2.75;;
64351;SDS011;50680;52.626;-8.668;2022-09-21T06:26:33;11.10;;;2.47;;
64351;SDS011;50680;52.626;-8.668;2022-09-21T06:29:00;5.30;;;2.58;;
64351;SDS011;50680;52.626;-8.668;2022-09-21T06:31:27;5.15;;;2.42;;
64351;SDS011;50680;52.626;-8.668;2022-09-21T06:33:54;3.17;;;2.45;;
64351;SDS011;50680;52.626;-8.668;2022-09-21T06:36:22;4.20;;;2.53;;
64351;SDS011;50680;52.626;-8.668;2022-09-21T06:38:48;8.02;;;2.28;;
64351;SDS011;50680;52.626;-8.668;2022-09-21T06:41:15;7.68;;;2.20;;
64351;SDS011;50680;52.626;-8.668;2022-09-21T06:43:46;6.00;;;2.75;;
64351;SDS011;50680;52.626;-8.668;2022-09-21T06:46:13;10.63;;;2.50;;
64351;SDS011;50680;52.626;-8.668;2022-09-21T06:48:40;3.55;;;2.20;;
64351;SDS011;50680;52.626;-8.668;2022-09-21T06:51:08;3.83;;;2.20;;
64351;SDS011;50680;52.626;-8.668;2022-09-21T06:53:35;3.30;;;2.13;;
64351;SDS011;50680;52.626;-8.668;2022-09-21T06:56:02;4.50;;;2.20;;
64351;SDS011;50680;52.626;-8.668;2022-09-21T06:58:31;2.72;;;1.92;;
64351;SDS011;50680;52.626;-8.668;2022-09-21T07:01:06;3.70;;;2.35;;
64351;SDS011;50680;52.626;-8.668;2022-09-21T07:03:35;5.13;;;1.90;;
64351;SDS011;50680;52.626;-8.668;2022-09-21T07:06:03;4.38;;;2.00;;
64351;SDS011;50680;52.626;-8.668;2022-09-21T07:08:31;3.20;;;2.00;;
64351;SDS011;50680;52.626;-8.668;2022-09-21T07:11:18;3.95;;;2.10;;
64351;SDS011;50680;52.626;-8.668;2022-09-21T07:13:46;6.03;;;2.20;;
64351;SDS011;50680;52.626;-8.668;2022-09-21T07:16:13;3.72;;;2.40;;
64351;SDS011;50680;52.626;-8.668;2022-09-21T07:18:40;4.15;;;2.35;;
64351;SDS011;50680;52.626;-8.668;2022-09-21T07:21:09;5.50;;;2.17;;
64351;SDS011;50680;52.626;-8.668;2022-09-21T07:23:37;7.40;;;2.03;;
64351;SDS011;50680;52.626;-8.668;2022-09-21T07:26:05;4.15;;;1.70;;
64351;SDS011;50680;52.626;-8.668;2022-09-21T07:28:34;3.45;;;2.17;;
64351;SDS011;50680;52.626;-8.668;2022-09-21T07:31:05;6.35;;;2.35;;
64351;SDS011;50680;52.626;-8.668;2022-09-21T07:33:42;3.60;;;1.95;;
64351;SDS011;50680;52.626;-8.668;2022-09-21T07:36:12;3.75;;;1.73;;
64351;SDS011;50680;52.626;-8.668;2022-09-21T07:38:40;4.72;;;2.38;;
64351;SDS011;50680;52.626;-8.668;2022-09-21T07:41:09;4.15;;;1.77;;
64351;SDS011;50680;52.626;-8.668;2022-09-21T07:43:37;4.03;;;2.03;;
64351;SDS011;50680;52.626;-8.668;2022-09-21T07:46:06;5.20;;;2.40;;
64351;SDS011;50680;52.626;-8.668;2022-09-21T07:48:34;4.43;;;2.20;;
64351;SDS011;50680;52.626;-8.668;2022-09-21T07:51:05;4.68;;;2.15;;
64351;SDS011;50680;52.626;-8.668;2022-09-21T07:53:35;6.15;;;2.15;;
64351;SDS011;50680;52.626;-8.668;2022-09-21T07:56:05;7.40;;;2.08;;
64351;SDS011;50680;52.626;-8.668;2022-09-21T07:58:34;7.07;;;2.47;;
64351;SDS011;50680;52.626;-8.668;2022-09-21T08:01:21;3.08;;;1.75;;
64351;SDS011;50680;52.626;-8.668;2022-09-21T08:03:49;3.25;;;1.90;;
64351;SDS011;50680;52.626;-8.668;2022-09-21T08:06:18;3.47;;;2.20;;
64351;SDS011;50680;52.626;-8.668;2022-09-21T08:08:45;6.05;;;1.70;;
64351;SDS011;50680;52.626;-8.668;2022-09-21T08:11:14;5.50;;;1.60;;
64351;SDS011;50680;52.626;-8.668;2022-09-21T08:13:42;3.90;;;2.25;;
64351;SDS011;50680;52.626;-8.668;2022-09-21T08:16:09;3.88;;;2.05;;
64351;SDS011;50680;52.626;-8.668;2022-09-21T08:18:38;2.67;;;2.00;;
64351;SDS011;50680;52.626;-8.668;2022-09-21T08:21:06;4.13;;;1.80;;
64351;SDS011;50680;52.626;-8.668;2022-09-21T08:23:37;2.63;;;1.85;;
64351;SDS011;50680;52.626;-8.668;2022-09-21T08:26:12;2.17;;;1.77;;
64351;SDS011;50680;52.626;-8.668;2022-09-21T08:28:44;4.50;;;1.70;;
64351;SDS011;50680;52.626;-8.668;2022-09-21T08:31:16;4.50;;;1.58;;
64351;SDS011;50680;52.626;-8.668;2022-09-21T08:33:45;4.82;;;1.70;;
64351;SDS011;50680;52.626;-8.668;2022-09-21T08:36:13;2.95;;;1.70;;
64351;SDS011;50680;52.626;-8.668;2022-09-21T08:38:40;2.15;;;1.50;;
64351;SDS011;50680;52.626;-8.668;2022-09-21T08:43:53;7.35;;;1.63;;
64351;SDS011;50680;52.626;-8.668;2022-09-21T08:46:25;8.43;;;1.70;;
64351;SDS011;50680;52.626;-8.668;2022-09-21T08:48:55;2.65;;;1.58;;
64351;SDS011;50680;52.626;-8.668;2022-09-21T08:51:36;2.25;;;1.48;;
64351;SDS011;50680;52.626;-8.668;2022-09-21T08:54:11;2.90;;;1.38;;
64351;SDS011;50680;52.626;-8.668;2022-09-21T08:56:48;2.38;;;1.20;;
64351;SDS011;50680;52.626;-8.668;2022-09-21T08:59:30;2.95;;;1.33;;
64351;SDS011;50680;52.626;-8.668;2022-09-21T09:21:32;5.18;;;1.23;;
64351;SDS011;50680;52.626;-8.668;2022-09-21T09:29:21;4.60;;;1.40;;
64351;SDS011;50680;52.626;-8.668;2022-09-21T09:31:54;3.20;;;1.60;;
64351;SDS011;50680;52.626;-8.668;2022-09-21T09:34:29;3.67;;;1.10;;
64351;SDS011;50680;52.626;-8.668;2022-09-21T09:37:14;2.80;;;1.38;;
64351;SDS011;50680;52.626;-8.668;2022-09-21T09:39:42;5.20;;;1.48;;
64351;SDS011;50680;52.626;-8.668;2022-09-21T09:45:22;6.63;;;1.90;;
64351;SDS011;50680;52.626;-8.668;2022-09-21T09:50:38;3.28;;;1.40;;
64351;SDS011;50680;52.626;-8.668;2022-09-21T09:53:10;6.90;;;1.38;;
64351;SDS011;50680;52.626;-8.668;2022-09-21T09:55:45;5.78;;;1.60;;
64351;SDS011;50680;52.626;-8.668;2022-09-21T09:58:19;6.40;;;1.63;;
64351;SDS011;50680;52.626;-8.668;2022-09-21T10:00:52;1.60;;;1.35;;
64351;SDS011;50680;52.626;-8.668;2022-09-21T10:03:21;15.88;;;1.90;;
64351;SDS011;50680;52.626;-8.668;2022-09-21T10:05:50;4.65;;;1.50;;
64351;SDS011;50680;52.626;-8.668;2022-09-21T10:11:04;3.80;;;1.48;;
64351;SDS011;50680;52.626;-8.668;2022-09-21T10:13:32;3.95;;;1.50;;
64351;SDS011;50680;52.626;-8.668;2022-09-21T10:16:02;5.25;;;1.48;;
64351;SDS011;50680;52.626;-8.668;2022-09-21T10:19:05;3.75;;;1.55;;
64351;SDS011;50680;52.626;-8.668;2022-09-21T10:21:33;5.05;;;1.52;;
64351;SDS011;50680;52.626;-8.668;2022-09-21T10:24:06;2.72;;;1.67;;
64351;SDS011;50680;52.626;-8.668;2022-09-21T10:31:55;1.40;;;1.20;;
64351;SDS011;50680;52.626;-8.668;2022-09-21T10:34:22;2.13;;;1.40;;
64351;SDS011;50680;52.626;-8.668;2022-09-21T10:36:51;2.55;;;1.17;;
64351;SDS011;50680;52.626;-8.668;2022-09-21T10:39:25;2.53;;;1.20;;
64351;SDS011;50680;52.626;-8.668;2022-09-21T10:44:36;6.03;;;1.50;;
64351;SDS011;50680;52.626;-8.668;2022-09-21T10:50:00;4.45;;;1.40;;
64351;SDS011;50680;52.626;-8.668;2022-09-21T10:52:40;2.25;;;1.35;;
64351;SDS011;50680;52.626;-8.668;2022-09-21T10:55:16;2.03;;;1.40;;
64351;SDS011;50680;52.626;-8.668;2022-09-21T10:57:45;4.70;;;1.70;;
64351;SDS011;50680;52.626;-8.668;2022-09-21T11:02:49;3.38;;;1.20;;
64351;SDS011;50680;52.626;-8.668;2022-09-21T11:05:19;4.82;;;1.25;;
64351;SDS011;50680;52.626;-8.668;2022-09-21T11:10:26;4.13;;;0.88;;
64351;SDS011;50680;52.626;-8.668;2022-09-21T11:13:52;4.03;;;1.10;;
64351;SDS011;50680;52.626;-8.668;2022-09-21T11:16:20;4.57;;;1.00;;
64351;SDS011;50680;52.626;-8.668;2022-09-21T11:28:09;2.58;;;1.27;;
64351;SDS011;50680;52.626;-8.668;2022-09-21T11:30:56;3.85;;;1.80;;
64351;SDS011;50680;52.626;-8.668;2022-09-21T11:34:00;5.07;;;1.10;;
64351;SDS011;50680;52.626;-8.668;2022-09-21T11:45:01;3.47;;;1.30;;
64351;SDS011;50680;52.626;-8.668;2022-09-21T11:50:27;1.80;;;1.00;;
64351;SDS011;50680;52.626;-8.668;2022-09-21T11:53:29;2.75;;;1.00;;
64351;SDS011;50680;52.626;-8.668;2022-09-21T11:59:48;2.30;;;1.20;;
64351;SDS011;50680;52.626;-8.668;2022-09-21T12:02:35;4.25;;;0.80;;
64351;SDS011;50680;52.626;-8.668;2022-09-21T12:04:59;3.50;;;1.08;;
64351;SDS011;50680;52.626;-8.668;2022-09-21T12:21:33;2.95;;;0.90;;
64351;SDS011;50680;52.626;-8.668;2022-09-21T12:27:33;1.52;;;1.00;;
64351;SDS011;50680;52.626;-8.668;2022-09-21T12:30:40;3.72;;;1.70;;
64351;SDS011;50680;52.626;-8.668;2022-09-21T12:33:01;2.17;;;0.93;;
64351;SDS011;50680;52.626;-8.668;2022-09-21T12:41:24;3.22;;;1.20;;
64351;SDS011;50680;52.626;-8.668;2022-09-21T12:46:36;6.53;;;1.40;;
64351;SDS011;50680;52.626;-8.668;2022-09-21T12:49:22;6.70;;;1.65;;
64351;SDS011;50680;52.626;-8.668;2022-09-21T12:51:56;3.08;;;1.45;;
64351;SDS011;50680;52.626;-8.668;2022-09-21T13:00:39;5.38;;;1.67;;
64351;SDS011;50680;52.626;-8.668;2022-09-21T13:09:11;4.03;;;1.30;;
64351;SDS011;50680;52.626;-8.668;2022-09-21T13:11:53;5.10;;;1.60;;
64351;SDS011;50680;52.626;-8.668;2022-09-21T13:14:29;5.53;;;1.90;;
64351;SDS011;50680;52.626;-8.668;2022-09-21T13:17:02;3.95;;;1.63;;
64351;SDS011;50680;52.626;-8.668;2022-09-21T13:19:32;2.95;;;1.33;;
64351;SDS011;50680;52.626;-8.668;2022-09-21T13:24:39;30.52;;;2.80;;
64351;SDS011;50680;52.626;-8.668;2022-09-21T13:27:08;4.43;;;1.40;;
64351;SDS011;50680;52.626;-8.668;2022-09-21T13:29:35;6.57;;;1.60;;
64351;SDS011;50680;52.626;-8.668;2022-09-21T13:34:39;5.15;;;1.35;;
64351;SDS011;50680;52.626;-8.668;2022-09-21T13:44:59;6.07;;;1.52;;
64351;SDS011;50680;52.626;-8.668;2022-09-21T13:47:32;6.10;;;1.67;;
64351;SDS011;50680;52.626;-8.668;2022-09-21T13:52:38;2.55;;;1.50;;
64351;SDS011;50680;52.626;-8.668;2022-09-21T13:55:27;4.30;;;1.70;;
64351;SDS011;50680;52.626;-8.668;2022-09-21T13:58:01;3.72;;;1.75;;
64351;SDS011;50680;52.626;-8.668;2022-09-21T14:00:42;5.05;;;1.95;;
64351;SDS011;50680;52.626;-8.668;2022-09-21T14:03:23;7.20;;;1.88;;
64351;SDS011;50680;52.626;-8.668;2022-09-21T14:05:58;4.03;;;1.90;;
64351;SDS011;50680;52.626;-8.668;2022-09-21T14:08:29;6.55;;;2.10;;
64351;SDS011;50680;52.626;-8.668;2022-09-21T14:11:00;6.60;;;2.20;;
64351;SDS011;50680;52.626;-8.668;2022-09-21T14:27:10;10.63;;;2.42;;
64351;SDS011;50680;52.626;-8.668;2022-09-21T14:29:59;6.80;;;2.63;;
64351;SDS011;50680;52.626;-8.668;2022-09-21T14:32:34;4.20;;;2.40;;
64351;SDS011;50680;52.626;-8.668;2022-09-21T14:35:14;2.80;;;1.88;;
64351;SDS011;50680;52.626;-8.668;2022-09-21T14:40:48;2.55;;;2.03;;
64351;SDS011;50680;52.626;-8.668;2022-09-21T14:43:35;40.03;;;3.58;;
64351;SDS011;50680;52.626;-8.668;2022-09-21T14:51:41;4.25;;;1.75;;
64351;SDS011;50680;52.626;-8.668;2022-09-21T15:00:35;4.47;;;1.95;;
64351;SDS011;50680;52.626;-8.668;2022-09-21T15:06:14;4.72;;;2.20;;
64351;SDS011;50680;52.626;-8.668;2022-09-21T15:12:20;5.47;;;2.13;;
64351;SDS011;50680;52.626;-8.668;2022-09-21T15:17:53;10.20;;;2.13;;
64351;SDS011;50680;52.626;-8.668;2022-09-21T15:20:25;4.55;;;2.25;;
64351;SDS011;50680;52.626;-8.668;2022-09-21T15:22:58;5.65;;;2.45;;
64351;SDS011;50680;52.626;-8.668;2022-09-21T15:27:57;3.58;;;2.15;;
64351;SDS011;50680;52.626;-8.668;2022-09-21T15:30:26;8.70;;;2.05;;
64351;SDS011;50680;52.626;-8.668;2022-09-21T15:32:59;3.88;;;1.80;;
64351;SDS011;50680;52.626;-8.668;2022-09-21T15:35:30;4.45;;;2.38;;
64351;SDS011;50680;52.626;-8.668;2022-09-21T15:37:58;4.85;;;2.03;;
64351;SDS011;50680;52.626;-8.668;2022-09-21T15:40:28;6.55;;;1.90;;
64351;SDS011;50680;52.626;-8.668;2022-09-21T15:45:28;3.10;;;1.90;;
64351;SDS011;50680;52.626;-8.668;2022-09-21T15:47:59;5.13;;;2.28;;
64351;SDS011;50680;52.626;-8.668;2022-09-21T15:50:27;6.78;;;1.80;;
64351;SDS011;50680;52.626;-8.668;2022-09-21T15:53:05;8.20;;;2.20;;
64351;SDS011;50680;52.626;-8.668;2022-09-21T15:55:44;3.08;;;1.90;;
64351;SDS011;50680;52.626;-8.668;2022-09-21T16:01:26;7.05;;;2.05;;
64351;SDS011;50680;52.626;-8.668;2022-09-21T16:04:06;65.13;;;4.57;;
64351;SDS011;50680;52.626;-8.668;2022-09-21T16:06:37;4.97;;;1.40;;
64351;SDS011;50680;52.626;-8.668;2022-09-21T16:09:28;4.38;;;1.75;;
64351;SDS011;50680;52.626;-8.668;2022-09-21T16:14:52;5.22;;;1.80;;
64351;SDS011;50680;52.626;-8.668;2022-09-21T16:17:26;6.05;;;1.70;;
64351;SDS011;50680;52.626;-8.668;2022-09-21T16:24:50;5.03;;;1.40;;
64351;SDS011;50680;52.626;-8.668;2022-09-21T16:27:25;7.28;;;1.25;;
64351;SDS011;50680;52.626;-8.668;2022-09-21T16:29:54;3.03;;;1.30;;
64351;SDS011;50680;52.626;-8.668;2022-09-21T16:35:40;3.50;;;1.33;;
64351;SDS011;50680;52.626;-8.668;2022-09-21T16:37:53;8.80;;;2.22;;
64351;SDS011;50680;52.626;-8.668;2022-09-21T16:40:26;5.35;;;1.30;;
64351;SDS011;50680;52.626;-8.668;2022-09-21T16:42:54;5.80;;;1.40;;
64351;SDS011;50680;52.626;-8.668;2022-09-21T16:45:29;4.78;;;1.42;;
64351;SDS011;50680;52.626;-8.668;2022-09-21T16:47:58;4.55;;;1.60;;
64351;SDS011;50680;52.626;-8.668;2022-09-21T16:50:25;4.53;;;1.60;;
64351;SDS011;50680;52.626;-8.668;2022-09-21T16:52:52;3.90;;;1.85;;
64351;SDS011;50680;52.626;-8.668;2022-09-21T16:55:19;7.00;;;1.88;;
64351;SDS011;50680;52.626;-8.668;2022-09-21T16:57:53;4.60;;;1.60;;
64351;SDS011;50680;52.626;-8.668;2022-09-21T17:00:20;3.92;;;1.70;;
64351;SDS011;50680;52.626;-8.668;2022-09-21T17:02:47;3.70;;;1.90;;
64351;SDS011;50680;52.626;-8.668;2022-09-21T17:05:14;5.80;;;2.00;;
64351;SDS011;50680;52.626;-8.668;2022-09-21T17:07:54;4.63;;;1.52;;
64351;SDS011;50680;52.626;-8.668;2022-09-21T17:10:23;8.02;;;1.92;;
64351;SDS011;50680;52.626;-8.668;2022-09-21T17:12:54;12.77;;;2.95;;
64351;SDS011;50680;52.626;-8.668;2022-09-21T17:15:22;9.73;;;2.40;;
64351;SDS011;50680;52.626;-8.668;2022-09-21T17:17:50;7.53;;;2.35;;
64351;SDS011;50680;52.626;-8.668;2022-09-21T17:20:19;7.05;;;2.53;;
64351;SDS011;50680;52.626;-8.668;2022-09-21T17:23:03;6.00;;;2.00;;
64351;SDS011;50680;52.626;-8.668;2022-09-21T17:25:31;7.53;;;2.65;;
64351;SDS011;50680;52.626;-8.668;2022-09-21T17:27:59;6.28;;;2.28;;
64351;SDS011;50680;52.626;-8.668;2022-09-21T17:30:27;4.65;;;2.38;;
64351;SDS011;50680;52.626;-8.668;2022-09-21T17:32:54;6.32;;;2.70;;
64351;SDS011;50680;52.626;-8.668;2022-09-21T17:37:59;8.05;;;3.10;;
64351;SDS011;50680;52.626;-8.668;2022-09-21T17:40:26;8.80;;;3.75;;
64351;SDS011;50680;52.626;-8.668;2022-09-21T17:42:54;10.50;;;4.32;;
64351;SDS011;50680;52.626;-8.668;2022-09-21T17:45:38;10.77;;;4.03;;
64351;SDS011;50680;52.626;-8.668;2022-09-21T17:48:16;8.55;;;4.38;;
64351;SDS011;50680;52.626;-8.668;2022-09-21T17:50:45;12.57;;;4.18;;
64351;SDS011;50680;52.626;-8.668;2022-09-21T17:53:13;10.73;;;4.05;;
64351;SDS011;50680;52.626;-8.668;2022-09-21T17:56:07;10.10;;;4.90;;
64351;SDS011;50680;52.626;-8.668;2022-09-21T18:01:28;12.73;;;5.30;;
64351;SDS011;50680;52.626;-8.668;2022-09-21T18:03:59;12.48;;;5.07;;
64351;SDS011;50680;52.626;-8.668;2022-09-21T18:06:26;10.65;;;5.28;;
64351;SDS011;50680;52.626;-8.668;2022-09-21T18:08:54;11.48;;;5.18;;
64351;SDS011;50680;52.626;-8.668;2022-09-21T18:16:51;12.50;;;6.45;;
64351;SDS011;50680;52.626;-8.668;2022-09-21T18:25:30;13.63;;;4.85;;
64351;SDS011;50680;52.626;-8.668;2022-09-21T18:30:38;11.05;;;5.07;;
64351;SDS011;50680;52.626;-8.668;2022-09-21T18:33:18;10.40;;;4.60;;
64351;SDS011;50680;52.626;-8.668;2022-09-21T18:36:14;8.20;;;4.68;;
64351;SDS011;50680;52.626;-8.668;2022-09-21T18:38:54;13.10;;;5.68;;
64351;SDS011;50680;52.626;-8.668;2022-09-21T18:45:01;11.27;;;4.65;;
64351;SDS011;50680;52.626;-8.668;2022-09-21T18:50:48;9.82;;;4.85;;
64351;SDS011;50680;52.626;-8.668;2022-09-21T18:56:11;12.82;;;5.32;;
64351;SDS011;50680;52.626;-8.668;2022-09-21T18:58:38;16.95;;;5.68;;
64351;SDS011;50680;52.626;-8.668;2022-09-21T19:01:11;11.68;;;5.22;;
64351;SDS011;50680;52.626;-8.668;2022-09-21T19:03:40;14.88;;;6.18;;
64351;SDS011;50680;52.626;-8.668;2022-09-21T19:09:10;13.20;;;6.10;;
64351;SDS011;50680;52.626;-8.668;2022-09-21T19:21:11;15.65;;;6.72;;
64351;SDS011;50680;52.626;-8.668;2022-09-21T19:24:06;11.27;;;5.97;;
64351;SDS011;50680;52.626;-8.668;2022-09-21T19:35:21;12.13;;;5.22;;
64351;SDS011;50680;52.626;-8.668;2022-09-21T19:37:55;13.55;;;5.30;;
64351;SDS011;50680;52.626;-8.668;2022-09-21T19:40:25;15.63;;;5.38;;
64351;SDS011;50680;52.626;-8.668;2022-09-21T19:48:36;11.75;;;5.57;;
64351;SDS011;50680;52.626;-8.668;2022-09-21T19:51:11;8.77;;;5.38;;
64351;SDS011;50680;52.626;-8.668;2022-09-21T19:53:54;14.45;;;6.32;;
64351;SDS011;50680;52.626;-8.668;2022-09-21T19:56:45;11.43;;;5.40;;
64351;SDS011;50680;52.626;-8.668;2022-09-21T19:59:32;8.40;;;5.18;;